createdAt,value
2022-10-17T00:00:32.478Z,101810.50
2022-10-17T00:02:58.979Z,101820.31
2022-10-17T00:05:25.324Z,101812.28
2022-10-17T00:07:52.757Z,101824.56
2022-10-17T00:10:20.614Z,101820.19
2022-10-17T00:12:47.184Z,101833.38
2022-10-17T00:15:18.844Z,101845.66
2022-10-17T00:17:45.611Z,101846.56
2022-10-17T00:20:12.858Z,101854.56
2022-10-17T00:22:39.678Z,101864.19
2022-10-17T00:25:06.392Z,101866.84
2022-10-17T00:27:40.980Z,101869.47
2022-10-17T00:30:11.679Z,101863.28
2022-10-17T00:32:38.139Z,101858.00
2022-10-17T00:35:05.000Z,101859.75
2022-10-17T00:37:32.243Z,101861.50
2022-10-17T00:39:58.947Z,101864.97
2022-10-17T00:42:27.134Z,101862.34
2022-10-17T00:45:11.296Z,101851.84
2022-10-17T00:47:37.986Z,101850.88
2022-10-17T00:50:07.396Z,101858.78
2022-10-17T00:52:34.286Z,101864.91
2022-10-17T00:55:11.307Z,101866.75
2022-10-17T00:57:39.380Z,101857.91
2022-10-17T01:00:09.923Z,101851.78
2022-10-17T01:02:37.645Z,101854.41
2022-10-17T01:05:05.041Z,101868.47
2022-10-17T01:07:37.164Z,101870.19
2022-10-17T01:10:06.062Z,101877.19
2022-10-17T01:12:51.874Z,101884.25
2022-10-17T01:15:32.851Z,101875.41
2022-10-17T01:18:24.127Z,101882.44
2022-10-17T01:21:17.141Z,101884.22
2022-10-17T01:24:16.383Z,101884.22
2022-10-17T01:27:02.687Z,101874.53
2022-10-17T01:29:55.070Z,101866.66
2022-10-17T01:32:25.332Z,101863.97
2022-10-17T01:34:59.252Z,101866.63
2022-10-17T01:37:47.197Z,101870.13
2022-10-17T01:40:39.376Z,101863.06
2022-10-17T01:43:18.056Z,101858.66
2022-10-17T01:45:53.480Z,101862.97
2022-10-17T01:48:24.313Z,101852.41
2022-10-17T01:51:00.740Z,101862.16
2022-10-17T01:53:33.610Z,101853.28
2022-10-17T01:56:04.640Z,101847.16
2022-10-17T01:58:46.183Z,101840.09
2022-10-17T02:01:13.306Z,101833.81
2022-10-17T02:03:43.659Z,101827.75
2022-10-17T02:06:10.026Z,101825.09
2022-10-17T02:08:45.633Z,101827.81
2022-10-17T02:11:17.582Z,101828.66
2022-10-17T02:14:20.889Z,101822.53
2022-10-17T02:17:17.893Z,101818.97
2022-10-17T02:20:15.621Z,101815.34
2022-10-17T02:23:02.838Z,101815.22
2022-10-17T02:25:45.775Z,101820.56
2022-10-17T02:28:39.298Z,101820.50
2022-10-17T02:31:26.323Z,101816.06
2022-10-17T02:34:01.740Z,101808.88
2022-10-17T02:36:35.004Z,101804.53
2022-10-17T02:39:03.015Z,101802.75
2022-10-17T02:41:31.416Z,101800.97
2022-10-17T02:44:00.199Z,101799.25
2022-10-17T02:46:30.530Z,101804.53
2022-10-17T02:49:05.359Z,101799.25
2022-10-17T02:51:45.197Z,101795.81
2022-10-17T02:54:26.983Z,101778.06
2022-10-17T02:56:59.298Z,101783.25
2022-10-17T02:59:28.582Z,101777.97
2022-10-17T03:01:55.434Z,101775.34
2022-10-17T03:04:21.964Z,101779.69
2022-10-17T03:06:49.058Z,101768.28
2022-10-17T03:09:16.022Z,101759.53
2022-10-17T03:11:42.590Z,101748.09
2022-10-17T03:14:09.001Z,101764.78
2022-10-17T03:16:36.383Z,101761.22
2022-10-17T03:19:03.900Z,101759.44
2022-10-17T03:21:31.290Z,101754.09
2022-10-17T03:23:57.775Z,101749.72
2022-10-17T03:26:24.474Z,101754.09
2022-10-17T03:28:53.662Z,101757.66
2022-10-17T03:31:22.702Z,101751.50
2022-10-17T03:33:50.143Z,101755.06
2022-10-17T03:36:18.604Z,101748.06
2022-10-17T03:38:46.711Z,101754.25
2022-10-17T03:41:13.219Z,101760.34
2022-10-17T03:43:40.192Z,101753.28
2022-10-17T03:46:07.675Z,101756.78
2022-10-17T03:48:34.697Z,101755.88
2022-10-17T03:51:05.193Z,101748.88
2022-10-17T03:53:34.319Z,101746.22
2022-10-17T03:56:18.206Z,101762.28
2022-10-17T03:58:51.130Z,101759.66
2022-10-17T04:01:19.529Z,101754.53
2022-10-17T04:03:54.276Z,101751.94
2022-10-17T04:06:21.527Z,101753.78
2022-10-17T04:08:48.376Z,101744.19
2022-10-17T04:11:21.833Z,101753.03
2022-10-17T04:13:54.514Z,101747.75
2022-10-17T04:16:22.933Z,101745.16
2022-10-17T04:19:04.826Z,101746.00
2022-10-17T04:21:37.785Z,101744.28
2022-10-17T04:24:06.911Z,101746.16
2022-10-17T04:26:43.742Z,101749.66
2022-10-17T04:29:10.829Z,101751.50
2022-10-17T04:31:37.984Z,101750.63
2022-10-17T04:34:15.288Z,101749.81
2022-10-17T04:36:42.137Z,101753.47
2022-10-17T04:39:08.874Z,101743.78
2022-10-17T04:41:35.975Z,101742.00
2022-10-17T04:44:02.687Z,101737.72
2022-10-17T04:46:34.148Z,101742.13
2022-10-17T04:49:00.588Z,101733.38
2022-10-17T04:51:27.604Z,101736.94
2022-10-17T04:54:23.113Z,101728.09
2022-10-17T04:56:56.495Z,101725.53
2022-10-17T04:59:22.972Z,101718.53
2022-10-17T05:01:56.520Z,101730.91
2022-10-17T05:04:24.897Z,101729.25
2022-10-17T05:06:52.694Z,101716.97
2022-10-17T05:09:39.016Z,101716.16
2022-10-17T05:12:08.104Z,101720.63
2022-10-17T05:14:38.238Z,101727.75
2022-10-17T05:17:04.898Z,101726.88
2022-10-17T05:19:31.374Z,101722.56
2022-10-17T05:21:58.475Z,101720.91
2022-10-17T05:24:25.011Z,101713.91
2022-10-17T05:26:52.026Z,101713.13
2022-10-17T05:29:19.057Z,101703.56
2022-10-17T05:31:50.897Z,101707.97
2022-10-17T05:34:17.833Z,101717.66
2022-10-17T05:36:44.726Z,101709.81
2022-10-17T05:39:14.771Z,101715.94
2022-10-17T05:41:41.631Z,101720.34
2022-10-17T05:44:08.147Z,101719.50
2022-10-17T05:46:40.079Z,101719.50
2022-10-17T05:49:15.014Z,101715.13
2022-10-17T05:51:53.484Z,101715.94
2022-10-17T05:54:20.508Z,101716.94
2022-10-17T05:56:52.205Z,101713.50
2022-10-17T05:59:20.612Z,101710.88
2022-10-17T06:01:54.544Z,101716.13
2022-10-17T06:04:21.060Z,101720.72
2022-10-17T06:06:47.626Z,101718.13
2022-10-17T06:09:14.090Z,101722.63
2022-10-17T06:11:44.288Z,101723.44
2022-10-17T06:14:11.848Z,101722.53
2022-10-17T06:16:40.046Z,101718.97
2022-10-17T06:19:06.710Z,101715.44
2022-10-17T06:21:36.411Z,101722.50
2022-10-17T06:24:08.590Z,101714.53
2022-10-17T06:26:36.980Z,101714.47
2022-10-17T06:29:06.260Z,101715.34
2022-10-17T06:31:36.355Z,101714.38
2022-10-17T06:34:02.796Z,101717.84
2022-10-17T06:36:29.779Z,101718.69
2022-10-17T06:38:56.151Z,101718.63
2022-10-17T06:41:29.854Z,101712.44
2022-10-17T06:44:09.512Z,101708.94
2022-10-17T06:46:59.013Z,101709.75
2022-10-17T06:49:26.748Z,101711.41
2022-10-17T06:52:19.283Z,101714.75
2022-10-17T06:55:08.980Z,101719.91
2022-10-17T06:57:51.678Z,101724.25
2022-10-17T07:00:37.205Z,101711.09
2022-10-17T07:03:03.988Z,101709.16
2022-10-17T07:05:30.488Z,101716.94
2022-10-17T07:07:56.880Z,101725.53
2022-10-17T07:10:23.276Z,101719.31
2022-10-17T07:12:49.842Z,101718.31
2022-10-17T07:15:16.346Z,101704.94
2022-10-17T07:17:42.931Z,101705.72
2022-10-17T07:20:09.832Z,101722.31
2022-10-17T07:22:37.851Z,101726.47
2022-10-17T07:25:04.646Z,101726.13
2022-10-17T07:27:38.379Z,101731.84
2022-10-17T07:30:05.435Z,101730.63
2022-10-17T07:32:55.032Z,101748.59
2022-10-17T07:35:21.831Z,101750.06
2022-10-17T07:37:48.490Z,101747.13
2022-10-17T07:40:17.700Z,101729.47
2022-10-17T07:42:44.243Z,101739.06
2022-10-17T07:45:11.411Z,101736.41
2022-10-17T07:47:38.036Z,101738.97
2022-10-17T07:50:07.836Z,101741.56
2022-10-17T07:52:34.636Z,101731.78
2022-10-17T07:55:01.010Z,101729.91
2022-10-17T07:57:27.494Z,101752.59
2022-10-17T07:59:54.617Z,101762.19
2022-10-17T08:02:24.512Z,101755.59
2022-10-17T08:04:54.222Z,101746.31
2022-10-17T08:07:24.368Z,101750.72
2022-10-17T08:09:54.956Z,101741.81
2022-10-17T08:12:22.004Z,101737.66
2022-10-17T08:14:48.343Z,101726.34
2022-10-17T08:17:14.877Z,101727.81
2022-10-17T08:19:41.522Z,101720.41
2022-10-17T08:22:08.164Z,101726.88
2022-10-17T08:24:34.690Z,101723.16
2022-10-17T08:27:01.338Z,101725.94
2022-10-17T08:29:27.943Z,101712.69
2022-10-17T08:31:58.669Z,101716.94
2022-10-17T08:34:28.075Z,101718.31
2022-10-17T08:36:54.644Z,101705.72
2022-10-17T08:39:21.160Z,101701.91
2022-10-17T08:41:56.834Z,101700.63
2022-10-17T08:44:54.239Z,101703.84
2022-10-17T08:47:29.423Z,101695.38
2022-10-17T08:50:00.653Z,101693.09
2022-10-17T08:52:38.437Z,101692.59
2022-10-17T08:55:14.709Z,101700.09
2022-10-17T08:57:41.212Z,101690.91
2022-10-17T09:00:16.846Z,101693.88
2022-10-17T09:03:06.858Z,101691.88
2022-10-17T09:05:51.206Z,101712.63
2022-10-17T09:08:29.902Z,101716.78
2022-10-17T09:11:35.301Z,101722.19
2022-10-17T09:14:08.418Z,101712.16
2022-10-17T09:17:02.722Z,101728.00
2022-10-17T09:19:34.407Z,101719.44
2022-10-17T09:22:03.056Z,101715.91
2022-10-17T09:24:46.318Z,101706.09
2022-10-17T09:27:22.866Z,101701.94
2022-10-17T09:29:54.595Z,101720.00
2022-10-17T09:32:25.553Z,101721.00
2022-10-17T09:34:53.683Z,101716.19
2022-10-17T09:37:25.420Z,101724.50
2022-10-17T09:39:52.223Z,101722.75
2022-10-17T09:42:21.595Z,101725.31
2022-10-17T09:45:19.318Z,101719.63
2022-10-17T09:47:53.815Z,101710.09
2022-10-17T09:50:28.082Z,101718.16
2022-10-17T09:52:56.726Z,101705.19
2022-10-17T09:55:42.820Z,101700.25
2022-10-17T09:58:10.885Z,101705.13
2022-10-17T10:00:41.447Z,101702.31
2022-10-17T10:03:23.479Z,101697.09
2022-10-17T10:06:01.836Z,101691.88
2022-10-17T10:08:34.444Z,101695.31
2022-10-17T10:11:13.380Z,101698.53
2022-10-17T10:13:40.292Z,101706.19
2022-10-17T10:16:20.142Z,101705.38
2022-10-17T10:18:50.134Z,101708.66
2022-10-17T10:21:20.987Z,101708.91
2022-10-17T10:23:59.555Z,101714.75
2022-10-17T10:26:44.992Z,101712.41
2022-10-17T10:29:23.477Z,101710.66
2022-10-17T10:31:51.328Z,101713.69
2022-10-17T10:34:31.332Z,101717.25
2022-10-17T10:37:01.994Z,101715.78
2022-10-17T10:39:33.719Z,101709.84
2022-10-17T10:42:02.526Z,101704.28
2022-10-17T10:44:31.365Z,101711.31
2022-10-17T10:47:30.417Z,101710.47
2022-10-17T10:50:24.068Z,101701.94
2022-10-17T10:52:56.325Z,101701.53
2022-10-17T10:55:34.356Z,101711.81
2022-10-17T10:58:06.439Z,101710.19
2022-10-17T11:00:34.871Z,101713.66
2022-10-17T11:03:18.661Z,101718.75
2022-10-17T11:05:51.200Z,101726.53
2022-10-17T11:08:32.784Z,101733.47
2022-10-17T11:10:59.172Z,101727.56
2022-10-17T11:13:31.852Z,101728.81
2022-10-17T11:16:39.911Z,101730.13
2022-10-17T11:19:25.101Z,101731.16
2022-10-17T11:22:26.654Z,101726.69
2022-10-17T11:25:04.760Z,101731.94
2022-10-17T11:27:33.789Z,101735.47
2022-10-17T11:30:00.380Z,101731.75
2022-10-17T11:32:34.792Z,101736.88
2022-10-17T11:35:14.758Z,101740.31
2022-10-17T11:37:48.478Z,101741.19
2022-10-17T11:40:23.612Z,101740.78
2022-10-17T11:43:01.448Z,101727.28
2022-10-17T11:45:35.009Z,101715.03
2022-10-17T11:48:17.408Z,101712.00
2022-10-17T11:53:50.876Z,101707.59
2022-10-17T11:56:26.440Z,101709.31
2022-10-17T11:59:07.722Z,101696.25
2022-10-17T12:01:58.519Z,101690.75
2022-10-17T12:05:01.652Z,101697.78
2022-10-17T12:08:02.093Z,101738.78
2022-10-17T12:10:45.635Z,101767.59
2022-10-17T12:13:33.683Z,101770.00
2022-10-17T12:16:37.513Z,101747.44
2022-10-17T12:19:06.262Z,101762.16
2022-10-17T12:21:55.519Z,101777.34
2022-10-17T12:24:34.268Z,101789.16
2022-10-17T12:27:28.998Z,101796.28
2022-10-17T12:30:01.686Z,101800.53
2022-10-17T12:32:36.755Z,101788.59
2022-10-17T12:35:20.574Z,101778.91
2022-10-17T12:37:55.230Z,101774.44
2022-10-17T12:40:35.653Z,101764.59
2022-10-17T12:43:28.223Z,101762.34
2022-10-17T12:45:55.804Z,101760.84
2022-10-17T12:48:34.496Z,101775.06
2022-10-17T12:51:35.675Z,101778.56
2022-10-17T12:54:14.918Z,101781.94
2022-10-17T12:56:46.557Z,101792.03
2022-10-17T12:59:25.852Z,101796.16
2022-10-17T13:01:58.977Z,101787.66
2022-10-17T13:04:27.525Z,101797.84
2022-10-17T13:06:59.037Z,101800.13
2022-10-17T13:09:33.202Z,101820.63
2022-10-17T13:12:03.063Z,101803.97
2022-10-17T13:14:31.531Z,101813.91
2022-10-17T13:17:03.931Z,101833.59
2022-10-17T13:19:40.005Z,101872.06
2022-10-17T13:22:22.453Z,101880.22
2022-10-17T13:24:50.843Z,101837.88
2022-10-17T13:27:23.456Z,101837.63
2022-10-17T13:29:50.002Z,101821.34
2022-10-17T13:32:16.797Z,101813.75
2022-10-17T13:34:43.356Z,101812.41
2022-10-17T13:37:15.751Z,101831.13
2022-10-17T13:39:55.223Z,101836.97
2022-10-17T13:42:37.213Z,101837.19
2022-10-17T13:45:04.236Z,101826.34
2022-10-17T13:47:36.571Z,101842.81
2022-10-17T13:50:09.431Z,101840.03
2022-10-17T13:52:43.188Z,101859.44
2022-10-17T13:55:17.458Z,101861.28
2022-10-17T13:57:44.364Z,101882.44
2022-10-17T14:00:21.645Z,101892.50
2022-10-17T14:02:48.431Z,101892.63
2022-10-17T14:05:20.321Z,101877.66
2022-10-17T14:08:22.064Z,101862.53
2022-10-17T14:10:49.183Z,101849.81
2022-10-17T14:13:22.758Z,101857.03
2022-10-17T14:15:50.225Z,101858.03
2022-10-17T14:18:47.407Z,101841.28
2022-10-17T14:21:40.476Z,101832.19
2022-10-17T14:24:23.533Z,101833.78
2022-10-17T14:26:52.623Z,101823.88
2022-10-17T14:29:31.821Z,101827.41
2022-10-17T14:32:02.032Z,101823.88
2022-10-17T14:34:35.741Z,101826.69
2022-10-17T14:37:08.450Z,101836.38
2022-10-17T14:39:35.014Z,101837.31
2022-10-17T14:42:04.444Z,101840.16
2022-10-17T14:44:34.950Z,101859.69
2022-10-17T14:47:30.393Z,101864.09
2022-10-17T14:50:02.531Z,101872.91
2022-10-17T14:52:30.617Z,101888.00
2022-10-17T14:54:58.858Z,101904.75
2022-10-17T14:57:29.332Z,101905.78
2022-10-17T14:59:57.211Z,101919.81
2022-10-17T15:02:29.247Z,101917.13
2022-10-17T15:04:55.938Z,101915.38
2022-10-17T15:07:23.669Z,101916.25
2022-10-17T15:09:51.608Z,101916.13
2022-10-17T15:12:25.615Z,101917.91
2022-10-17T15:14:53.414Z,101928.41
2022-10-17T15:17:33.008Z,101932.03
2022-10-17T15:19:59.388Z,101943.38
2022-10-17T15:22:26.681Z,101941.84
2022-10-17T15:24:53.177Z,101947.25
2022-10-17T15:27:22.979Z,101954.28
2022-10-17T15:29:51.389Z,101953.31
2022-10-17T15:32:17.748Z,101952.50
2022-10-17T15:34:44.428Z,101957.06
2022-10-17T15:37:18.685Z,101959.78
2022-10-17T15:39:52.808Z,101965.06
2022-10-17T15:42:20.336Z,101963.34
2022-10-17T15:44:49.718Z,101960.72
2022-10-17T15:47:34.133Z,101963.69
2022-10-17T15:50:01.983Z,101962.75
2022-10-17T15:52:28.561Z,101972.38
2022-10-17T15:54:56.468Z,101974.19
2022-10-17T15:57:28.678Z,101971.66
2022-10-17T15:59:57.223Z,101974.56
2022-10-17T16:02:24.089Z,101975.44
2022-10-17T16:04:51.549Z,101978.09
2022-10-17T16:07:21.732Z,101981.97
2022-10-17T16:09:48.209Z,101978.59
2022-10-17T16:14:49.748Z,101984.75
2022-10-17T16:17:17.051Z,101979.31
2022-10-17T16:19:43.533Z,101980.94
2022-10-17T16:22:21.023Z,101988.88
2022-10-17T16:24:47.375Z,101990.59
2022-10-17T16:27:13.887Z,101984.63
2022-10-17T16:29:40.359Z,101985.50
2022-10-17T16:32:06.781Z,101994.44
2022-10-17T16:34:35.948Z,101990.00
2022-10-17T16:37:02.355Z,101990.06
2022-10-17T16:39:28.746Z,101993.66
2022-10-17T16:41:57.786Z,101996.22
2022-10-17T16:44:25.291Z,101999.66
2022-10-17T16:46:51.649Z,101999.72
2022-10-17T16:49:18.244Z,102000.59
2022-10-17T16:51:44.675Z,102004.16
2022-10-17T16:54:11.211Z,102004.31
2022-10-17T16:56:37.683Z,102012.19
2022-10-17T16:59:10.534Z,102013.06
2022-10-17T17:01:40.716Z,102012.97
2022-10-17T17:04:10.256Z,102020.06
2022-10-17T17:06:38.892Z,102024.59
2022-10-17T17:09:09.693Z,102018.44
2022-10-17T17:11:37.450Z,102026.25
2022-10-17T17:14:05.157Z,102029.63
2022-10-17T17:16:33.493Z,102031.34
2022-10-17T17:19:05.635Z,102034.94
2022-10-17T17:21:33.342Z,102035.81
2022-10-17T17:24:01.497Z,102038.38
2022-10-17T17:26:31.806Z,102042.13
2022-10-17T17:29:00.420Z,102045.72
2022-10-17T17:31:33.085Z,102039.56
2022-10-17T17:34:00.279Z,102044.72
2022-10-17T17:36:33.077Z,102039.25
2022-10-17T17:39:01.418Z,102039.31
2022-10-17T17:41:28.754Z,102045.53
2022-10-17T17:44:12.461Z,102049.06
2022-10-17T17:46:43.500Z,102044.53
2022-10-17T17:49:12.629Z,102050.56
2022-10-17T17:51:41.378Z,102058.41
2022-10-17T17:54:11.620Z,102061.91
2022-10-17T17:56:38.658Z,102067.28
2022-10-17T17:59:05.624Z,102070.72
2022-10-17T18:01:38.208Z,102074.16
2022-10-17T18:04:08.566Z,102077.50
2022-10-17T18:06:38.020Z,102066.16
2022-10-17T18:09:06.012Z,102065.56
2022-10-17T18:11:32.820Z,102061.38
2022-10-17T18:14:03.983Z,102057.97
2022-10-17T18:16:33.849Z,102059.72
2022-10-17T18:19:08.138Z,102057.09
2022-10-17T18:21:36.275Z,102057.06
2022-10-17T18:24:07.555Z,102063.09
2022-10-17T18:26:34.557Z,102063.97
2022-10-17T18:29:01.549Z,102064.63
2022-10-17T18:31:35.473Z,102070.81
2022-10-17T18:34:03.251Z,102065.75
2022-10-17T18:36:30.861Z,102074.56
2022-10-17T18:38:58.867Z,102080.78
2022-10-17T18:41:27.040Z,102081.78
2022-10-17T18:43:56.823Z,102077.44
2022-10-17T18:46:32.435Z,102088.97
2022-10-17T18:48:58.926Z,102085.31
2022-10-17T18:51:25.865Z,102089.53
2022-10-17T18:53:54.757Z,102091.31
2022-10-17T18:56:22.542Z,102101.78
2022-10-17T18:58:48.966Z,102092.94
2022-10-17T19:01:21.506Z,102095.69
2022-10-17T19:03:49.981Z,102102.00
2022-10-17T19:06:18.702Z,102101.06
2022-10-17T19:08:45.581Z,102108.94
2022-10-17T19:11:15.049Z,102114.25
2022-10-17T19:13:42.336Z,102113.38
2022-10-17T19:16:11.611Z,102102.78
2022-10-17T19:18:38.145Z,102106.97
2022-10-17T19:21:07.180Z,102102.72
2022-10-17T19:23:35.956Z,102104.41
2022-10-17T19:26:08.163Z,102107.91
2022-10-17T19:28:36.006Z,102116.59
2022-10-17T19:31:02.845Z,102119.13
2022-10-17T19:33:30.887Z,102118.38
2022-10-17T19:36:03.200Z,102111.59
2022-10-17T19:38:29.696Z,102111.59
2022-10-17T19:40:56.185Z,102115.31
2022-10-17T19:43:22.974Z,102119.19
2022-10-17T19:45:57.767Z,102119.50
2022-10-17T19:48:33.464Z,102121.28
2022-10-17T19:51:00.095Z,102123.19
2022-10-17T19:53:29.620Z,102136.63
2022-10-17T19:55:57.727Z,102136.63
2022-10-17T19:58:25.827Z,102142.91
2022-10-17T20:01:03.084Z,102152.69
2022-10-17T20:03:29.679Z,102150.41
2022-10-17T20:05:56.107Z,102166.44
2022-10-17T20:08:22.704Z,102163.94
2022-10-17T20:10:55.231Z,102173.66
2022-10-17T20:13:21.676Z,102182.66
2022-10-17T20:15:58.212Z,102180.03
2022-10-17T20:18:25.686Z,102184.41
2022-10-17T20:20:52.399Z,102177.53
2022-10-17T20:23:18.839Z,102184.75
2022-10-17T20:25:45.500Z,102183.91
2022-10-17T20:28:11.871Z,102194.66
2022-10-17T20:30:44.676Z,102199.19
2022-10-17T20:33:14.127Z,102203.72
2022-10-17T20:35:41.946Z,102214.53
2022-10-17T20:38:08.762Z,102215.72
2022-10-17T20:40:35.812Z,102218.38
2022-10-17T20:43:07.076Z,102216.53
2022-10-17T20:45:50.629Z,102219.28
2022-10-17T20:48:18.071Z,102228.31
2022-10-17T20:50:44.473Z,102225.97
2022-10-17T20:53:35.521Z,102234.69
2022-10-17T20:56:12.676Z,102244.31
2022-10-17T20:58:39.433Z,102248.78
2022-10-17T21:01:07.753Z,102255.00
2022-10-17T21:03:37.829Z,102256.94
2022-10-17T21:06:08.713Z,102264.94
2022-10-17T21:08:35.499Z,102262.16
2022-10-17T21:11:10.368Z,102261.25
2022-10-17T21:13:37.353Z,102261.16
2022-10-17T21:16:05.848Z,102264.63
2022-10-17T21:18:32.206Z,102257.66
2022-10-17T21:21:14.461Z,102267.31
2022-10-17T21:23:42.785Z,102262.06
2022-10-17T21:26:10.265Z,102259.44
2022-10-17T21:28:37.355Z,102259.56
2022-10-17T21:31:25.983Z,102265.91
2022-10-17T21:33:55.673Z,102258.84
2022-10-17T21:36:24.262Z,102255.31
2022-10-17T21:38:52.256Z,102255.66
2022-10-17T21:41:20.291Z,102260.13
2022-10-17T21:43:55.371Z,102265.75
2022-10-17T21:46:22.311Z,102268.53
2022-10-17T21:48:49.395Z,102261.66
2022-10-17T21:51:18.958Z,102268.16
2022-10-17T21:53:45.602Z,102274.50
2022-10-17T21:56:15.315Z,102267.38
2022-10-17T21:58:43.333Z,102274.41
2022-10-17T22:01:17.100Z,102272.78
2022-10-17T22:03:46.848Z,102278.88
2022-10-17T22:09:14.176Z,102268.88
2022-10-17T22:11:41.160Z,102269.00
2022-10-17T22:14:12.035Z,102264.34
2022-10-17T22:16:38.627Z,102269.44
2022-10-17T22:19:06.718Z,102269.44
2022-10-17T22:21:35.493Z,102283.47
2022-10-17T22:24:05.833Z,102279.72
2022-10-17T22:26:34.287Z,102279.53
2022-10-17T22:29:02.223Z,102280.38
2022-10-17T22:31:28.655Z,102274.34
2022-10-17T22:33:55.874Z,102280.56
2022-10-17T22:36:22.664Z,102275.34
2022-10-17T22:38:49.131Z,102273.63
2022-10-17T22:41:15.609Z,102279.59
2022-10-17T22:43:42.065Z,102269.59
2022-10-17T22:46:09.849Z,102270.31
2022-10-17T22:48:36.779Z,102270.28
2022-10-17T22:51:03.317Z,102271.44
2022-10-17T22:53:29.940Z,102274.22
2022-10-17T22:56:00.053Z,102282.16
2022-10-17T22:58:28.217Z,102275.97
2022-10-17T23:00:55.066Z,102286.47
2022-10-17T23:03:23.282Z,102281.13
2022-10-17T23:05:51.347Z,102279.28
2022-10-17T23:08:18.438Z,102283.69
2022-10-17T23:10:45.899Z,102283.66
2022-10-17T23:13:13.029Z,102287.06
2022-10-17T23:15:39.431Z,102287.88
2022-10-17T23:18:06.076Z,102288.69
2022-10-17T23:20:32.710Z,102291.28
2022-10-17T23:22:59.342Z,102288.53
2022-10-17T23:25:25.984Z,102289.28
2022-10-17T23:27:52.526Z,102295.59
2022-10-17T23:30:19.015Z,102298.28
2022-10-17T23:32:45.368Z,102295.66
2022-10-17T23:35:12.246Z,102301.91
2022-10-17T23:37:38.580Z,102295.09
2022-10-17T23:40:06.132Z,102298.59
2022-10-17T23:42:32.562Z,102295.91
2022-10-17T23:44:59.012Z,102295.94
2022-10-17T23:47:25.358Z,102291.63
2022-10-17T23:49:51.873Z,102290.84
2022-10-17T23:52:18.399Z,102296.19
2022-10-17T23:54:44.884Z,102305.97
2022-10-17T23:57:11.312Z,102312.06
2022-10-17T23:59:37.666Z,102313.00
